Terminal Aerodrome Forecast
Issued by NWS Denver/Boulder, CO

Home | Current Version | Previous Version | Text Only | Print | Product List | Glossary On
Versions: 1 2 3 4 5 6 7 8 9 10 11 12 13 14 15 16 17 18 19 20 21 22 23 24 25 26 27 28 29 30 31 32 33 34 35 36 37 38 39 40 41
000
FTUS45 KBOU 130540
TAFDEN
TAF
KDEN 130540Z 1306/1412 01014G22KT P6SM VCSH SCT090 BKN150
     FM130800 04014G22KT P6SM VCSH BKN040 OVC060
      TEMPO 1308/1312 -SHRA
     FM131200 04012G18KT 5SM -SHRASN BKN020 OVC030
     FM131400 02012G20KT 3SM -SN BR OVC015
     FM131800 01016G24KT 2SM -SN BR OVC008
      TEMPO 1320/1324 1/2SM SN OVC004
     FM140000 01016KT 2SM -SN BR OVC008
     FM140400 33010KT 5SM -SHSN BKN014 OVC025
     FM140700 29010KT P6SM SCT015 BKN040=

USA.gov is the U.S. government's official web portal to all federal, state and local government web resources and services.